Waterville, Vermont
Current Conditions -  °F | °C
As of 8:54 PM on Sunday 21 Dec 2014 (Local Time) from KMVL Reporting Station
Overcast Overcast  
Wind Chill: -5°   Ceiling: 2100
Heat Index: -5°   Visibility: 9mi
Dew Point: -7°   Wind: 0mph
Humidity: 85%   Direction: NA
Pressure: 30.37"   Gusts: NA
Location:  44.69°N, 72.77°W
Report Text: KMVL 220154Z AUTO 00000KT 9SM BKN021 OVC029 M05/M07 A3037 RMK AO2 SLP298 T10501072 TSNO
Loading
Personal Weather Stations






























Interactive Weather Map New forecast layout! Learn more

10-Day Weather Forecast

Advertisements
Track Severe Weather on mobile